createdAt,value
2019-04-11T00:00:07.044Z,5.24
2019-04-11T00:01:08.012Z,5.31
2019-04-11T00:02:06.990Z,5.25
2019-04-11T00:03:07.096Z,5.28
2019-04-11T00:04:08.145Z,5.35
2019-04-11T00:05:06.828Z,5.39
2019-04-11T00:06:07.527Z,5.25
2019-04-11T00:07:07.837Z,5.21
2019-04-11T00:08:07.908Z,5.28
2019-04-11T00:09:06.648Z,5.28
2019-04-11T00:10:06.599Z,5.27
2019-04-11T00:11:06.555Z,5.25
2019-04-11T00:12:06.517Z,5.18
2019-04-11T00:13:18.248Z,5.18
2019-04-11T00:14:07.362Z,5.18
2019-04-11T00:15:06.476Z,5.20
2019-04-11T00:16:06.876Z,5.15
2019-04-11T00:17:06.293Z,5.15
2019-04-11T00:18:06.290Z,5.20
2019-04-11T00:19:07.256Z,5.21
2019-04-11T00:20:06.152Z,5.24
2019-04-11T00:21:06.788Z,5.21
2019-04-11T00:22:06.061Z,5.21
2019-04-11T00:23:06.150Z,5.21
2019-04-11T00:24:07.082Z,5.18
2019-04-11T00:25:05.936Z,5.22
2019-04-11T00:26:06.553Z,5.12
2019-04-11T00:27:05.852Z,5.20
2019-04-11T00:28:05.828Z,5.10
2019-04-11T00:29:05.975Z,5.10
2019-04-11T00:30:06.001Z,5.12
2019-04-11T00:31:06.365Z,5.07
2019-04-11T00:32:08.024Z,5.07
2019-04-11T00:33:05.755Z,5.10
2019-04-11T00:34:06.730Z,5.03
2019-04-11T00:35:05.482Z,4.97
2019-04-11T00:36:06.294Z,5.00
2019-04-11T00:37:05.402Z,4.99
2019-04-11T00:38:05.546Z,5.04
2019-04-11T00:39:05.581Z,5.04
2019-04-11T00:40:05.281Z,5.12
2019-04-11T00:41:05.852Z,5.04
2019-04-11T00:42:06.101Z,5.06
2019-04-11T00:43:05.250Z,5.02
2019-04-11T00:44:06.242Z,5.00
2019-04-11T00:45:05.437Z,4.89
2019-04-11T00:46:04.989Z,4.91
2019-04-11T00:47:04.939Z,4.92
2019-04-11T00:48:05.819Z,4.91
2019-04-11T00:49:04.858Z,4.92
2019-04-11T00:50:05.608Z,4.94
2019-04-11T00:51:04.794Z,4.82
2019-04-11T00:52:04.719Z,4.80
2019-04-11T00:53:05.569Z,4.77
2019-04-11T00:54:04.790Z,4.85
2019-04-11T00:55:05.061Z,4.75
2019-04-11T00:56:04.570Z,4.65
2019-04-11T00:57:04.499Z,4.72
2019-04-11T00:58:05.434Z,4.72
2019-04-11T00:59:04.407Z,4.80
2019-04-11T01:00:04.858Z,4.73
2019-04-11T01:01:04.341Z,4.62
2019-04-11T01:02:05.146Z,4.72
2019-04-11T01:03:07.184Z,4.78
2019-04-11T01:04:04.426Z,4.84
2019-04-11T01:05:05.373Z,4.75
2019-04-11T01:06:04.111Z,4.67
2019-04-11T01:07:04.770Z,4.67
2019-04-11T01:08:05.137Z,4.73
2019-04-11T01:09:04.152Z,4.84
2019-04-11T01:10:04.420Z,4.65
2019-04-11T01:11:03.895Z,4.69
2019-04-11T01:12:04.649Z,4.73
2019-04-11T01:13:04.965Z,4.69
2019-04-11T01:14:03.741Z,4.66
2019-04-11T01:15:04.906Z,4.66
2019-04-11T01:16:04.924Z,4.69
2019-04-11T01:17:03.624Z,4.69
2019-04-11T01:18:03.652Z,4.60
2019-04-11T01:19:04.563Z,4.67
2019-04-11T01:20:03.462Z,4.62
2019-04-11T01:21:04.045Z,4.62
2019-04-11T01:22:03.399Z,4.55
2019-04-11T01:23:03.329Z,4.62
2019-04-11T01:24:03.809Z,4.58
2019-04-11T01:25:04.163Z,4.50
2019-04-11T01:26:03.285Z,4.48
2019-04-11T01:27:03.170Z,4.45
2019-04-11T01:28:03.133Z,4.50
2019-04-11T01:29:03.086Z,4.42
2019-04-11T01:30:04.004Z,4.47
2019-04-11T01:31:03.114Z,4.42
2019-04-11T01:32:02.915Z,4.50
2019-04-11T01:33:02.870Z,4.52
2019-04-11T01:34:02.865Z,4.37
2019-04-11T01:35:02.808Z,4.32
2019-04-11T01:36:02.803Z,4.27
2019-04-11T01:37:03.713Z,4.24
2019-04-11T01:38:02.674Z,4.34
2019-04-11T01:39:03.093Z,4.32
2019-04-11T01:40:02.571Z,4.30
2019-04-11T01:41:02.550Z,4.32
2019-04-11T01:42:02.747Z,4.23
2019-04-11T01:43:02.452Z,4.26
2019-04-11T01:44:05.500Z,4.29
2019-04-11T01:45:03.218Z,4.33
2019-04-11T01:46:02.298Z,4.29
2019-04-11T01:47:02.533Z,4.36
2019-04-11T01:48:02.221Z,4.26
2019-04-11T01:49:02.294Z,4.18
2019-04-11T01:50:03.084Z,4.12
2019-04-11T01:51:02.288Z,4.14
2019-04-11T01:52:02.230Z,4.06
2019-04-11T01:53:02.611Z,4.16
2019-04-11T01:54:01.930Z,4.11
2019-04-11T01:55:02.085Z,4.22
2019-04-11T01:56:02.800Z,4.14
2019-04-11T01:57:01.787Z,4.18
2019-04-11T01:58:02.546Z,4.18
2019-04-11T01:59:02.692Z,4.09
2019-04-11T02:00:02.013Z,4.08
2019-04-11T02:01:01.612Z,4.11
2019-04-11T02:02:01.586Z,4.16
2019-04-11T02:03:01.520Z,4.09
2019-04-11T02:04:01.626Z,4.11
2019-04-11T02:05:01.454Z,4.02
2019-04-11T02:06:01.378Z,3.97
2019-04-11T02:07:02.436Z,3.91
2019-04-11T02:08:01.286Z,4.00
2019-04-11T02:09:01.937Z,3.90
2019-04-11T02:10:02.386Z,3.90
2019-04-11T02:11:01.403Z,3.97
2019-04-11T02:12:01.679Z,3.91
2019-04-11T02:13:01.750Z,3.90
2019-04-11T02:14:10.447Z,3.96
2019-04-11T02:15:00.976Z,3.96
2019-04-11T02:16:01.423Z,3.87
2019-04-11T02:17:01.247Z,3.90
2019-04-11T02:18:01.336Z,3.94
2019-04-11T02:19:01.655Z,3.96
2019-04-11T02:21:33.764Z,3.93
2019-04-11T02:22:34.725Z,3.96
2019-04-11T02:23:33.647Z,3.91
2019-04-11T02:24:34.163Z,3.96
2019-04-11T02:25:33.587Z,3.84
2019-04-11T02:26:33.633Z,3.91
2019-04-11T02:27:33.548Z,3.94
2019-04-11T02:28:33.438Z,3.88
2019-04-11T02:29:33.390Z,3.83
2019-04-11T02:30:33.900Z,3.87
2019-04-11T02:31:34.801Z,3.93
2019-04-11T02:32:34.383Z,3.90
2019-04-11T02:33:34.720Z,3.86
2019-04-11T02:34:33.150Z,3.80
2019-04-11T02:35:33.116Z,3.79
2019-04-11T02:36:34.117Z,3.78
2019-04-11T02:37:34.336Z,3.66
2019-04-11T02:38:34.704Z,3.76
2019-04-11T02:39:34.886Z,3.75
2019-04-11T02:40:32.932Z,3.68
2019-04-11T02:41:35.144Z,3.62
2019-04-11T02:42:33.036Z,3.55
2019-04-11T02:43:34.276Z,3.57
2019-04-11T02:44:51.062Z,3.62
2019-04-11T02:45:46.759Z,3.58
2019-04-11T02:46:42.526Z,3.48
2019-04-11T02:47:35.231Z,3.51
2019-04-11T02:48:33.180Z,3.62
2019-04-11T02:49:33.052Z,3.60
2019-04-11T02:50:34.288Z,3.65
2019-04-11T02:51:32.367Z,3.61
2019-04-11T02:52:33.547Z,3.62
2019-04-11T02:53:34.200Z,3.54
2019-04-11T02:54:33.469Z,3.45
2019-04-11T02:55:33.459Z,3.51
2019-04-11T02:56:33.466Z,3.45
2019-04-11T02:57:32.368Z,3.50
2019-04-11T02:58:32.063Z,3.45
2019-04-11T02:59:32.032Z,3.45
2019-04-11T03:00:33.637Z,3.45
2019-04-11T03:01:32.576Z,3.43
2019-04-11T03:02:32.715Z,3.45
2019-04-11T03:03:32.486Z,3.40
2019-04-11T03:04:31.857Z,3.28
2019-04-11T03:05:34.514Z,3.21
2019-04-11T03:06:33.266Z,3.35
2019-04-11T03:07:32.001Z,3.29
2019-04-11T03:08:34.181Z,3.21
2019-04-11T03:09:31.837Z,3.17
2019-04-11T03:10:33.527Z,3.21
2019-04-11T03:11:32.544Z,3.28
2019-04-11T03:12:31.931Z,3.26
2019-04-11T03:13:33.171Z,3.20
2019-04-11T03:14:46.132Z,3.18
2019-04-11T03:15:43.184Z,3.21
2019-04-11T03:16:42.771Z,3.23
2019-04-11T03:17:35.880Z,3.29
2019-04-11T03:18:45.975Z,3.28
2019-04-11T03:19:43.920Z,3.32
2019-04-11T03:20:38.441Z,3.32
2019-04-11T03:21:33.591Z,3.20
2019-04-11T03:22:32.200Z,3.24
2019-04-11T03:23:31.184Z,3.18
2019-04-11T03:24:31.817Z,3.20
2019-04-11T03:25:32.559Z,3.20
2019-04-11T03:26:31.080Z,3.17
2019-04-11T03:27:32.386Z,3.20
2019-04-11T03:28:33.008Z,3.24
2019-04-11T03:29:31.482Z,3.21
2019-04-11T03:30:48.869Z,3.32
2019-04-11T03:32:13.575Z,3.20
2019-04-11T03:33:17.324Z,3.18
2019-04-11T03:37:14.756Z,3.21
2019-04-11T03:37:56.654Z,3.17
2019-04-11T03:38:56.967Z,3.11
2019-04-11T03:39:54.264Z,3.20
2019-04-11T03:40:44.957Z,3.11
2019-04-11T03:41:50.800Z,3.18
2019-04-11T03:42:43.172Z,3.20
2019-04-11T03:43:41.833Z,3.20
2019-04-11T03:44:36.838Z,3.08
2019-04-11T03:45:47.933Z,3.06
2019-04-11T03:46:47.731Z,3.08
2019-04-11T03:47:41.258Z,3.10
2019-04-11T03:48:45.014Z,3.13
2019-04-11T03:49:39.903Z,3.08
2019-04-11T03:50:32.189Z,3.21
2019-04-11T03:51:29.793Z,3.14
2019-04-11T03:52:30.529Z,3.13
2019-04-11T03:53:30.068Z,3.11
2019-04-11T03:54:29.571Z,3.06
2019-04-11T03:55:30.755Z,2.99
2019-04-11T03:56:29.462Z,3.10
2019-04-11T03:57:29.884Z,2.96
2019-04-11T03:58:31.005Z,3.06
2019-04-11T03:59:31.230Z,3.06
2019-04-11T04:00:34.049Z,2.97
2019-04-11T04:01:29.635Z,3.11
2019-04-11T04:02:30.612Z,3.03
2019-04-11T04:03:30.895Z,2.99
2019-04-11T04:04:29.189Z,3.03
2019-04-11T04:05:32.241Z,2.90
2019-04-11T04:06:30.635Z,2.87
2019-04-11T04:07:29.680Z,2.85
2019-04-11T04:08:29.811Z,2.87
2019-04-11T04:09:29.530Z,2.84
2019-04-11T04:10:29.611Z,2.96
2019-04-11T04:11:31.604Z,2.84
2019-04-11T04:12:29.400Z,2.81
2019-04-11T04:13:31.636Z,2.97
2019-04-11T04:14:29.048Z,3.05
2019-04-11T04:15:39.178Z,3.03
2019-04-11T04:16:35.900Z,2.93
2019-04-11T04:17:28.449Z,2.97
2019-04-11T04:18:29.736Z,3.03
2019-04-11T04:19:30.195Z,2.97
2019-04-11T04:20:29.011Z,2.99
2019-04-11T04:21:28.790Z,3.08
2019-04-11T04:22:29.395Z,2.99
2019-04-11T04:23:29.461Z,2.97
2019-04-11T04:24:32.229Z,2.95
2019-04-11T04:25:28.567Z,2.97
2019-04-11T04:26:29.251Z,2.95
2019-04-11T04:27:28.169Z,3.10
2019-04-11T04:28:29.441Z,3.11
2019-04-11T04:29:29.403Z,3.02
2019-04-11T04:30:38.537Z,3.05
2019-04-11T04:31:38.414Z,3.05
2019-04-11T04:32:28.130Z,3.00
2019-04-11T04:33:29.297Z,2.95
2019-04-11T04:34:36.729Z,3.03
2019-04-11T04:35:38.584Z,3.00
2019-04-11T04:36:28.978Z,2.95
2019-04-11T04:37:29.438Z,3.00
2019-04-11T04:38:38.688Z,3.02
2019-04-11T04:39:37.696Z,2.97
2019-04-11T04:40:53.796Z,3.00
2019-04-11T04:41:37.369Z,2.96
2019-04-11T04:42:32.298Z,2.90
2019-04-11T04:43:28.028Z,2.97
2019-04-11T04:44:27.219Z,2.95
2019-04-11T04:45:27.666Z,3.03
2019-04-11T04:46:43.565Z,2.84
2019-04-11T04:47:38.540Z,3.02
2019-04-11T04:48:29.355Z,2.93
2019-04-11T04:49:28.207Z,2.97
2019-04-11T04:50:28.528Z,2.95
2019-04-11T04:51:26.901Z,3.00
2019-04-11T04:52:28.050Z,2.97
2019-04-11T04:53:28.370Z,3.02
2019-04-11T04:54:28.305Z,2.99
2019-04-11T04:55:28.563Z,2.99
2019-04-11T04:56:31.100Z,3.06
2019-04-11T04:57:26.878Z,3.18
2019-04-11T04:58:26.620Z,3.20
2019-04-11T04:59:28.090Z,3.28
2019-04-11T05:00:28.001Z,3.28
2019-04-11T05:01:26.794Z,3.39
2019-04-11T05:02:28.131Z,3.48
2019-04-11T05:03:26.732Z,3.45
2019-04-11T05:04:27.549Z,3.50
2019-04-11T05:05:27.214Z,3.43
2019-04-11T05:06:26.301Z,3.42
2019-04-11T05:07:29.275Z,3.50
2019-04-11T05:08:27.145Z,3.61
2019-04-11T05:09:26.182Z,3.51
2019-04-11T05:10:26.358Z,3.58
2019-04-11T05:11:26.328Z,3.68
2019-04-11T05:12:26.234Z,3.68
2019-04-11T05:13:25.855Z,3.68
2019-04-11T05:14:27.334Z,3.62
2019-04-11T05:15:26.114Z,3.75
2019-04-11T05:16:25.725Z,3.76
2019-04-11T05:17:28.145Z,3.75
2019-04-11T05:18:25.886Z,3.83
2019-04-11T05:19:25.612Z,3.76
2019-04-11T05:20:25.562Z,3.88
2019-04-11T05:21:25.522Z,3.70
2019-04-11T05:22:26.649Z,3.83
2019-04-11T05:23:25.562Z,3.79
2019-04-11T05:24:26.345Z,3.86
2019-04-11T05:25:26.297Z,3.80
2019-04-11T05:26:25.677Z,3.78
2019-04-11T05:27:25.219Z,3.75
2019-04-11T05:28:25.501Z,3.80
2019-04-11T05:29:25.139Z,3.90
2019-04-11T05:30:25.273Z,3.86
2019-04-11T05:31:25.058Z,3.93
2019-04-11T05:32:27.161Z,3.91
2019-04-11T05:33:25.324Z,3.94
2019-04-11T05:34:25.815Z,3.97
2019-04-11T05:35:24.962Z,3.97
2019-04-11T05:36:24.837Z,3.97
2019-04-11T05:37:24.962Z,4.05
2019-04-11T05:38:25.260Z,4.06
2019-04-11T05:39:25.523Z,4.08
2019-04-11T05:40:25.892Z,4.26
2019-04-11T05:41:25.104Z,4.27
2019-04-11T05:42:26.983Z,4.34
2019-04-11T05:43:27.965Z,4.51
2019-04-11T05:44:25.108Z,4.80
2019-04-11T05:45:25.996Z,5.42
2019-04-11T05:46:33.528Z,6.09
2019-04-11T05:47:25.517Z,7.03
2019-04-11T05:48:25.943Z,7.63
2019-04-11T05:49:24.237Z,7.98
2019-04-11T05:50:24.381Z,8.55
2019-04-11T05:51:25.238Z,8.89
2019-04-11T05:52:24.170Z,9.15
2019-04-11T05:53:24.924Z,9.75
2019-04-11T05:54:24.004Z,10.20
2019-04-11T05:55:23.972Z,10.61
2019-04-11T05:56:23.924Z,10.82
2019-04-11T05:57:27.878Z,11.29
2019-04-11T05:58:24.134Z,11.39
2019-04-11T05:59:24.404Z,11.80
2019-04-11T06:00:23.735Z,12.14
2019-04-11T06:01:24.386Z,12.32
2019-04-11T06:02:24.845Z,13.01
2019-04-11T06:03:23.911Z,12.85
2019-04-11T06:04:26.707Z,12.87
2019-04-11T06:05:24.511Z,12.12
2019-04-11T06:06:24.579Z,12.27
2019-04-11T06:07:23.459Z,12.28
2019-04-11T06:08:27.210Z,12.90
2019-04-11T06:09:23.409Z,12.67
2019-04-11T06:10:24.106Z,12.27
2019-04-11T06:11:24.176Z,12.34
2019-04-11T06:12:23.364Z,12.21
2019-04-11T06:13:23.209Z,12.52
2019-04-11T06:14:23.147Z,12.87
2019-04-11T06:15:23.098Z,13.05
2019-04-11T06:16:35.677Z,12.93
2019-04-11T06:17:23.899Z,12.75
2019-04-11T06:18:30.541Z,13.62
2019-04-11T06:19:22.987Z,13.99
2019-04-11T06:20:25.113Z,13.87
2019-04-11T06:21:23.969Z,13.66
2019-04-11T06:22:23.511Z,13.38
2019-04-11T06:23:23.474Z,13.11
2019-04-11T06:24:23.769Z,13.23
2019-04-11T06:25:23.480Z,13.54
2019-04-11T06:26:23.014Z,13.70
2019-04-11T06:27:22.680Z,13.48
2019-04-11T06:28:22.584Z,13.63
2019-04-11T06:29:26.220Z,13.60
2019-04-11T06:30:22.860Z,13.92
2019-04-11T06:31:24.537Z,14.15
2019-04-11T06:32:23.497Z,13.41
2019-04-11T06:33:22.708Z,13.36
2019-04-11T06:34:24.125Z,13.51
2019-04-11T06:35:22.315Z,13.95
2019-04-11T06:36:23.321Z,13.81
2019-04-11T06:37:22.384Z,13.95
2019-04-11T06:38:22.678Z,14.92
2019-04-11T06:39:23.045Z,14.98
2019-04-11T06:40:22.896Z,15.17
2019-04-11T06:41:22.187Z,14.45
2019-04-11T06:42:24.467Z,14.52
2019-04-11T06:43:22.008Z,14.20
2019-04-11T06:44:21.959Z,14.42
2019-04-11T06:45:21.898Z,14.17
2019-04-11T06:46:21.871Z,14.18
2019-04-11T06:47:22.902Z,13.66
2019-04-11T06:48:23.122Z,14.28
2019-04-11T06:49:22.485Z,15.16
2019-04-11T06:50:22.894Z,15.56
2019-04-11T06:51:21.999Z,15.06
2019-04-11T06:52:21.627Z,15.13
2019-04-11T06:53:21.576Z,14.78
2019-04-11T06:54:21.565Z,14.57
2019-04-11T06:55:22.440Z,14.77
2019-04-11T06:56:21.691Z,14.77
2019-04-11T06:57:21.645Z,14.57
2019-04-11T06:58:21.524Z,14.37
2019-04-11T06:59:21.570Z,14.02
2019-04-11T07:00:21.573Z,14.12
2019-04-11T07:01:22.318Z,14.68
2019-04-11T07:02:23.282Z,14.06
2019-04-11T07:03:25.491Z,14.39
2019-04-11T07:04:21.814Z,14.65
2019-04-11T07:05:21.169Z,14.96
2019-04-11T07:06:21.742Z,14.17
2019-04-11T07:07:21.061Z,14.22
2019-04-11T07:08:22.269Z,14.14
2019-04-11T07:09:22.192Z,13.51
2019-04-11T07:10:21.964Z,13.62
2019-04-11T07:11:20.867Z,14.04
2019-04-11T07:12:20.823Z,14.27
2019-04-11T07:13:20.784Z,15.11
2019-04-11T07:14:20.771Z,14.77
2019-04-11T07:15:20.901Z,14.17
2019-04-11T07:16:21.863Z,13.84
2019-04-11T07:17:21.113Z,13.64
2019-04-11T07:18:20.618Z,14.02
2019-04-11T07:19:20.555Z,14.32
2019-04-11T07:20:20.784Z,14.77
2019-04-11T07:21:21.233Z,15.10
2019-04-11T07:22:20.953Z,15.10
2019-04-11T07:23:20.395Z,15.02
2019-04-11T07:24:20.363Z,14.40
2019-04-11T07:25:20.362Z,14.54
2019-04-11T07:26:20.894Z,14.57
2019-04-11T07:27:20.255Z,14.06
2019-04-11T07:28:20.228Z,14.42
2019-04-11T07:29:20.181Z,14.55
2019-04-11T07:30:22.758Z,14.58
2019-04-11T07:31:21.308Z,14.95
2019-04-11T07:32:20.304Z,14.55
2019-04-11T07:33:20.224Z,14.91
2019-04-11T07:34:21.193Z,15.11
2019-04-11T07:35:19.972Z,15.51
2019-04-11T07:36:21.017Z,15.87
2019-04-11T07:37:21.233Z,15.49
2019-04-11T07:38:20.985Z,15.74
2019-04-11T07:39:20.177Z,15.44
2019-04-11T07:40:19.788Z,15.31
2019-04-11T07:41:19.727Z,15.56
2019-04-11T07:42:20.933Z,16.00
2019-04-11T07:43:19.656Z,16.43
2019-04-11T07:44:19.672Z,16.43
2019-04-11T07:45:19.571Z,16.07
2019-04-11T07:46:19.564Z,15.67
2019-04-11T07:47:23.194Z,15.32
2019-04-11T07:48:19.472Z,15.68
2019-04-11T07:49:19.908Z,15.75
2019-04-11T07:50:19.887Z,16.41
2019-04-11T07:51:19.686Z,16.89
2019-04-11T07:52:20.172Z,16.71
2019-04-11T07:53:19.731Z,16.85
2019-04-11T07:54:20.331Z,15.02
2019-04-11T07:55:19.245Z,15.43
2019-04-11T07:56:19.192Z,15.84
2019-04-11T07:57:19.392Z,15.50
2019-04-11T07:58:19.416Z,15.29
2019-04-11T07:59:19.575Z,15.17
2019-04-11T08:00:20.472Z,14.94
2019-04-11T08:01:19.071Z,15.14
2019-04-11T08:02:18.970Z,15.74
2019-04-11T08:03:19.187Z,14.65
2019-04-11T08:04:19.458Z,14.69
2019-04-11T08:05:19.261Z,14.39
2019-04-11T08:06:19.810Z,14.14
2019-04-11T08:07:19.863Z,15.02
2019-04-11T08:08:18.788Z,14.88
2019-04-11T08:09:18.765Z,14.35
2019-04-11T08:10:18.679Z,14.68
2019-04-11T08:11:19.802Z,15.14
2019-04-11T08:12:18.649Z,15.89
2019-04-11T08:13:18.578Z,16.73
2019-04-11T08:14:18.540Z,16.89
2019-04-11T08:15:19.556Z,17.31
2019-04-11T08:16:18.468Z,17.44
2019-04-11T08:17:28.175Z,16.94
2019-04-11T08:18:18.687Z,15.86
2019-04-11T08:19:20.710Z,14.95
2019-04-11T08:20:19.385Z,14.42
2019-04-11T08:21:28.291Z,14.33
2019-04-11T08:22:19.057Z,14.04
2019-04-11T08:23:19.336Z,14.57
2019-04-11T08:24:18.508Z,14.86
2019-04-11T08:25:18.159Z,15.53
2019-04-11T08:26:18.112Z,15.60
2019-04-11T08:27:18.090Z,15.35
2019-04-11T08:28:18.501Z,15.09
2019-04-11T08:29:18.053Z,15.07
2019-04-11T08:30:19.030Z,15.07
2019-04-11T08:31:17.974Z,15.62
2019-04-11T08:32:17.957Z,15.94
2019-04-11T08:33:18.350Z,15.41
2019-04-11T08:34:17.886Z,15.68
2019-04-11T08:35:17.816Z,15.59
2019-04-11T08:36:17.825Z,14.55
2019-04-11T08:37:17.786Z,14.42
2019-04-11T08:38:18.540Z,14.17
2019-04-11T08:39:17.685Z,14.61
2019-04-11T08:40:17.760Z,14.75
2019-04-11T08:41:17.688Z,14.64
2019-04-11T08:42:17.570Z,14.73
2019-04-11T08:43:17.609Z,14.81
2019-04-11T08:44:17.558Z,14.98
2019-04-11T08:45:17.596Z,15.74
2019-04-11T08:46:18.465Z,16.35
2019-04-11T08:47:18.308Z,16.64
2019-04-11T08:48:17.378Z,16.49
2019-04-11T08:49:17.391Z,15.93
2019-04-11T08:50:18.507Z,15.65
2019-04-11T08:51:17.273Z,15.90
2019-04-11T08:52:17.997Z,15.93
2019-04-11T08:53:18.464Z,15.94
2019-04-11T08:54:17.470Z,15.76
2019-04-11T08:55:17.287Z,16.07
2019-04-11T08:56:17.104Z,15.59
2019-04-11T08:57:17.885Z,15.23
2019-04-11T08:58:17.201Z,15.10
2019-04-11T08:59:17.296Z,15.11
2019-04-11T09:00:17.768Z,14.86
2019-04-11T09:01:17.968Z,14.80
2019-04-11T09:02:16.934Z,14.36
2019-04-11T09:03:17.710Z,13.49
2019-04-11T09:04:16.852Z,13.92
2019-04-11T09:05:19.550Z,14.37
2019-04-11T09:06:16.769Z,15.01
2019-04-11T09:07:17.065Z,15.28
2019-04-11T09:08:16.728Z,15.38
2019-04-11T09:09:16.673Z,15.23
2019-04-11T09:10:17.835Z,15.64
2019-04-11T09:11:16.992Z,16.31
2019-04-11T09:12:16.563Z,16.78
2019-04-11T09:13:17.406Z,16.66
2019-04-11T09:14:16.729Z,16.81
2019-04-11T09:15:16.939Z,16.97
2019-04-11T09:16:17.247Z,16.56
2019-04-11T09:17:16.549Z,16.38
2019-04-11T09:18:17.667Z,15.94
2019-04-11T09:19:16.777Z,15.67
2019-04-11T09:20:16.305Z,15.56
2019-04-11T09:21:16.251Z,15.68
2019-04-11T09:22:17.110Z,15.23
2019-04-11T09:23:16.226Z,15.44
2019-04-11T09:24:16.721Z,15.68
2019-04-11T09:25:16.153Z,16.01
2019-04-11T09:26:16.079Z,16.07
2019-04-11T09:27:16.252Z,15.87
2019-04-11T09:28:16.026Z,16.12
2019-04-11T09:29:15.974Z,16.14
2019-04-11T09:30:17.174Z,16.21
2019-04-11T09:31:16.954Z,16.07
2019-04-11T09:32:16.021Z,15.82
2019-04-11T09:33:17.107Z,15.68
2019-04-11T09:34:15.816Z,14.75
2019-04-11T09:35:16.471Z,14.40
2019-04-11T09:36:15.767Z,14.98
2019-04-11T09:37:17.659Z,15.38
2019-04-11T09:38:15.997Z,15.71
2019-04-11T09:39:15.705Z,15.87
2019-04-11T09:40:15.691Z,16.20
2019-04-11T09:41:16.442Z,16.31
2019-04-11T09:42:16.832Z,16.09
2019-04-11T09:43:15.825Z,15.82
2019-04-11T09:44:15.518Z,15.96
2019-04-11T09:45:15.468Z,14.58
2019-04-11T09:46:16.387Z,15.03
2019-04-11T09:47:15.604Z,15.10
2019-04-11T09:48:18.267Z,14.61
2019-04-11T09:49:15.323Z,14.43
2019-04-11T09:50:16.039Z,14.96
2019-04-11T09:51:15.626Z,14.80
2019-04-11T09:52:16.228Z,15.01
2019-04-11T09:53:16.267Z,14.61
2019-04-11T09:54:15.592Z,14.43
2019-04-11T09:55:15.128Z,14.78
2019-04-11T09:56:15.194Z,15.27
2019-04-11T09:57:16.272Z,15.68
2019-04-11T09:58:15.272Z,15.74
2019-04-11T09:59:15.002Z,15.46
2019-04-11T10:00:14.959Z,15.01
2019-04-11T10:01:15.969Z,14.91
2019-04-11T10:02:14.878Z,14.91
2019-04-11T10:03:15.344Z,14.89
2019-04-11T10:04:14.820Z,15.17
2019-04-11T10:05:15.883Z,15.32
2019-04-11T10:06:15.887Z,15.20
2019-04-11T10:07:14.713Z,15.76
2019-04-11T10:08:14.882Z,16.08
2019-04-11T10:09:15.631Z,16.45
2019-04-11T10:10:14.904Z,16.28
2019-04-11T10:11:15.563Z,15.60
2019-04-11T10:12:15.806Z,15.38
2019-04-11T10:13:14.557Z,15.10
2019-04-11T10:14:15.551Z,15.44
2019-04-11T10:15:15.456Z,15.64
2019-04-11T10:16:14.434Z,15.64
2019-04-11T10:17:14.881Z,15.51
2019-04-11T10:18:22.872Z,15.21
2019-04-11T10:19:14.343Z,13.79
2019-04-11T10:20:14.285Z,13.75
2019-04-11T10:21:15.201Z,13.78
2019-04-11T10:22:15.111Z,13.87
2019-04-11T10:23:14.335Z,13.95
2019-04-11T10:24:16.644Z,13.51
2019-04-11T10:25:14.819Z,14.06
2019-04-11T10:26:14.082Z,14.64
2019-04-11T10:27:14.327Z,14.91
2019-04-11T10:28:15.168Z,14.96
2019-04-11T10:29:14.908Z,14.92
2019-04-11T10:30:15.182Z,15.10
2019-04-11T10:31:14.691Z,15.50
2019-04-11T10:32:14.900Z,15.31
2019-04-11T10:33:14.926Z,15.06
2019-04-11T10:34:13.805Z,14.47
2019-04-11T10:35:14.599Z,14.36
2019-04-11T10:36:14.652Z,14.17
2019-04-11T10:37:13.785Z,14.62
2019-04-11T10:38:14.029Z,15.14
2019-04-11T10:39:13.651Z,15.35
2019-04-11T10:40:13.613Z,14.92
2019-04-11T10:41:14.675Z,14.57
2019-04-11T10:42:14.673Z,15.11
2019-04-11T10:43:13.533Z,14.88
2019-04-11T10:44:13.947Z,14.69
2019-04-11T10:45:14.200Z,14.03
2019-04-11T10:46:13.407Z,14.42
2019-04-11T10:47:14.415Z,14.68
2019-04-11T10:48:13.898Z,14.88
2019-04-11T10:49:13.624Z,14.86
2019-04-11T10:50:13.270Z,14.61
2019-04-11T10:51:13.239Z,14.86
2019-04-11T10:52:14.088Z,14.81
2019-04-11T10:53:13.189Z,14.42
2019-04-11T10:54:13.532Z,14.40
2019-04-11T10:55:13.608Z,14.24
2019-04-11T10:56:13.920Z,14.45
2019-04-11T10:57:13.895Z,14.07
2019-04-11T10:58:13.025Z,13.99
2019-04-11T10:59:13.310Z,14.06
2019-04-11T11:00:14.128Z,14.65
2019-04-11T11:01:12.891Z,14.91
2019-04-11T11:02:12.856Z,15.17
2019-04-11T11:03:13.794Z,14.91
2019-04-11T11:04:13.768Z,14.40
2019-04-11T11:05:12.842Z,13.79
2019-04-11T11:06:13.597Z,13.97
2019-04-11T11:07:12.983Z,13.97
2019-04-11T11:08:13.202Z,13.91
2019-04-11T11:09:12.631Z,14.06
2019-04-11T11:10:12.627Z,14.52
2019-04-11T11:11:14.773Z,14.51
2019-04-11T11:12:12.789Z,14.52
2019-04-11T11:13:12.497Z,14.35
2019-04-11T11:14:12.456Z,14.45
2019-04-11T11:15:13.599Z,14.75
2019-04-11T11:16:12.390Z,14.91
2019-04-11T11:17:15.548Z,14.81
2019-04-11T11:18:53.983Z,14.80
2019-04-11T11:19:34.941Z,14.84
2019-04-11T11:20:22.297Z,14.21
2019-04-11T11:21:13.276Z,14.00
2019-04-11T11:22:12.550Z,14.24
2019-04-11T11:23:13.046Z,14.24
2019-04-11T11:24:12.408Z,14.61
2019-04-11T11:25:14.155Z,14.77
2019-04-11T11:26:12.646Z,14.29
2019-04-11T11:27:12.026Z,13.51
2019-04-11T11:28:12.036Z,13.22
2019-04-11T11:29:15.247Z,13.41
2019-04-11T11:30:12.735Z,13.81
2019-04-11T11:31:11.947Z,14.02
2019-04-11T11:32:13.240Z,13.91
2019-04-11T11:33:11.817Z,13.55
2019-04-11T11:34:16.109Z,13.59
2019-04-11T11:35:12.631Z,13.25
2019-04-11T11:36:12.980Z,13.12
2019-04-11T11:37:13.143Z,13.54
2019-04-11T11:38:11.677Z,13.75
2019-04-11T11:39:11.623Z,13.73
2019-04-11T11:40:14.911Z,13.54
2019-04-11T11:41:12.196Z,13.46
2019-04-11T11:42:12.362Z,13.51
2019-04-11T11:43:11.629Z,13.30
2019-04-11T11:44:11.766Z,13.45
2019-04-11T11:45:11.412Z,13.79
2019-04-11T11:46:12.195Z,14.04
2019-04-11T11:47:11.950Z,14.20
2019-04-11T11:48:15.897Z,14.43
2019-04-11T11:49:12.202Z,14.81
2019-04-11T11:50:16.443Z,14.92
2019-04-11T11:51:11.219Z,14.84
2019-04-11T11:52:11.405Z,14.64
2019-04-11T11:53:13.201Z,14.91
2019-04-11T11:54:11.541Z,14.84
2019-04-11T11:55:12.346Z,14.10
2019-04-11T11:56:11.075Z,13.81
2019-04-11T11:57:11.004Z,13.64
2019-04-11T11:58:14.330Z,13.85
2019-04-11T11:59:11.252Z,13.84
2019-04-11T12:00:10.927Z,14.04
2019-04-11T12:01:11.695Z,14.17
2019-04-11T12:02:10.835Z,13.69
2019-04-11T12:03:10.826Z,13.15
2019-04-11T12:04:10.812Z,13.12
2019-04-11T12:05:14.848Z,13.48
2019-04-11T12:06:10.713Z,13.64
2019-04-11T12:07:10.669Z,13.91
2019-04-11T12:08:13.626Z,14.15
2019-04-11T12:09:10.628Z,14.43
2019-04-11T12:10:11.273Z,14.54
2019-04-11T12:11:10.561Z,14.33
2019-04-11T12:12:11.400Z,14.43
2019-04-11T12:13:12.821Z,14.12
2019-04-11T12:14:11.609Z,13.62
2019-04-11T12:15:14.191Z,13.49
2019-04-11T12:16:10.365Z,13.45
2019-04-11T12:17:10.361Z,13.57
2019-04-11T12:18:11.020Z,13.54
2019-04-11T12:19:10.899Z,13.69
2019-04-11T12:20:14.194Z,13.73
2019-04-11T12:21:11.412Z,14.07
2019-04-11T12:22:10.497Z,14.04
2019-04-11T12:23:10.147Z,14.04
2019-04-11T12:24:11.355Z,13.57
2019-04-11T12:25:10.089Z,13.51
2019-04-11T12:26:12.465Z,13.17
2019-04-11T12:27:11.171Z,13.07
2019-04-11T12:28:14.650Z,12.83
2019-04-11T12:29:10.251Z,12.95
2019-04-11T12:30:10.916Z,13.08
2019-04-11T12:31:09.871Z,12.89
2019-04-11T12:32:10.351Z,12.86
2019-04-11T12:33:10.783Z,12.97
2019-04-11T12:34:10.260Z,12.74
2019-04-11T12:35:09.755Z,12.77
2019-04-11T12:36:09.898Z,12.59
2019-04-11T12:37:10.579Z,12.39
2019-04-11T12:38:09.635Z,12.53
2019-04-11T12:39:09.600Z,12.45
2019-04-11T12:40:09.766Z,12.19
2019-04-11T12:41:09.552Z,12.28
2019-04-11T12:42:09.489Z,12.17
2019-04-11T12:43:09.505Z,12.02
2019-04-11T12:44:09.429Z,12.16
2019-04-11T12:45:09.380Z,12.28
2019-04-11T12:46:09.375Z,12.29
2019-04-11T12:47:09.348Z,12.41
2019-04-11T12:48:11.934Z,12.31
2019-04-11T12:49:09.312Z,12.31
2019-04-11T12:50:09.213Z,12.47
2019-04-11T12:51:09.182Z,12.67
2019-04-11T12:52:09.167Z,12.70
2019-04-11T12:53:09.212Z,12.59
2019-04-11T12:54:09.063Z,12.53
2019-04-11T12:55:09.044Z,12.41
2019-04-11T12:56:09.054Z,12.24
2019-04-11T12:57:08.970Z,12.04
2019-04-11T12:58:08.940Z,12.04
2019-04-11T12:59:08.893Z,12.23
2019-04-11T13:00:08.866Z,12.56
2019-04-11T13:01:08.839Z,12.59
2019-04-11T13:02:08.831Z,12.79
2019-04-11T13:03:08.770Z,12.93
2019-04-11T13:04:08.729Z,12.89
2019-04-11T13:05:08.689Z,12.77
2019-04-11T13:06:08.663Z,12.77
2019-04-11T13:07:08.658Z,12.71